Time;durP1;ratioP1;P1;durP2;ratioP2;P2;SDS_P1;SDS_P2;PMS_P1;PMS_P2;Temp;Humidity;BMP_temperature;BMP_pressure;BME280_temperature;BME280_humidity;BME280_pressure;Samples;Min_cycle;Max_cycle;Signal;HPM_P1;HPM_P2
2023/07/30 00:01:09;;;;;;;8.40;2.08;;;;;;;18.35;85.79;100772.16;5104981;28;20071;-67
2023/07/30 00:03:37;;;;;;;7.80;2.40;;;;;;;18.23;87.89;100767.53;5092492;28;20067;-67
2023/07/30 00:06:04;;;;;;;7.88;2.10;;;;;;;18.14;87.87;100774.44;5110907;28;20055;-67
2023/07/30 00:08:31;;;;;;;6.78;2.25;;;;;;;18.11;89.46;100770.44;5109349;28;20446;-67
2023/07/30 00:10:59;;;;;;;5.63;2.10;;;;;;;18.49;88.42;100767.75;5094746;28;20058;-67
2023/07/30 00:13:26;;;;;;;5.20;1.95;;;;;;;18.65;86.41;100770.47;5077121;28;20052;-68
2023/07/30 00:15:53;;;;;;;7.68;2.25;;;;;;;18.80;85.88;100775.16;5113321;28;20047;-65
2023/07/30 00:18:21;;;;;;;5.10;1.95;;;;;;;18.90;84.64;100782.94;5112238;28;20063;-67
2023/07/30 00:20:48;;;;;;;7.18;2.17;;;;;;;18.73;84.13;100778.63;5108280;28;20064;-67
2023/07/30 00:23:16;;;;;;;8.75;2.03;;;;;;;18.63;82.15;100782.00;5105679;28;20044;-67
2023/07/30 00:25:43;;;;;;;5.85;1.88;;;;;;;18.11;84.87;100786.34;5106251;28;20047;-66
2023/07/30 00:28:10;;;;;;;6.82;1.77;;;;;;;18.04;84.34;100780.59;5103041;28;20043;-67
2023/07/30 00:30:38;;;;;;;9.50;2.00;;;;;;;17.96;83.70;100782.38;5109554;28;20044;-66
2023/07/30 00:33:05;;;;;;;6.97;1.80;;;;;;;18.26;83.12;100775.16;5106136;28;20035;-67
2023/07/30 00:35:33;;;;;;;5.90;1.85;;;;;;;18.58;82.05;100773.13;5100921;28;20055;-65
2023/07/30 00:38:00;;;;;;;6.30;2.08;;;;;;;18.64;80.92;100777.22;5107461;28;20054;-67
2023/07/30 00:40:27;;;;;;;5.50;1.92;;;;;;;18.67;80.83;100768.91;5086044;28;20047;-67
2023/07/30 00:42:55;;;;;;;8.27;2.30;;;;;;;18.76;80.12;100775.09;5107653;28;20840;-68
2023/07/30 00:45:22;;;;;;;7.95;2.15;;;;;;;18.37;80.75;100780.97;5102983;28;20052;-66
2023/07/30 00:47:49;;;;;;;6.05;1.77;;;;;;;18.30;79.03;100792.78;5090067;28;20055;-66
2023/07/30 00:50:18;;;;;;;5.13;1.70;;;;;;;17.71;80.75;100795.69;5110507;28;20082;-66
2023/07/30 00:52:45;;;;;;;4.78;1.52;;;;;;;17.89;81.49;100794.19;5088397;28;20048;-67
2023/07/30 00:55:13;;;;;;;11.90;2.13;;;;;;;18.02;80.80;100794.91;5091910;28;20059;-66
2023/07/30 00:57:41;;;;;;;8.13;2.28;;;;;;;18.27;81.68;100804.63;5012454;28;20059;-66
2023/07/30 01:00:09;;;;;;;7.82;2.10;;;;;;;18.41;80.80;100809.78;5098214;28;20055;-66
2023/07/30 01:02:36;;;;;;;6.30;1.77;;;;;;;18.47;79.58;100809.13;5089207;28;20055;-66
2023/07/30 01:05:04;;;;;;;7.90;1.88;;;;;;;18.25;80.82;100817.34;5090371;28;20044;-67
2023/07/30 01:07:32;;;;;;;12.10;1.60;;;;;;;18.20;80.05;100815.63;5109212;28;20056;-66
2023/07/30 01:10:00;;;;;;;9.65;2.20;;;;;;;17.84;82.28;100816.75;5104211;28;20062;-66
2023/07/30 01:12:29;;;;;;;7.80;1.83;;;;;;;17.76;83.65;100816.94;5081785;28;20056;-67
2023/07/30 01:14:57;;;;;;;11.02;2.00;;;;;;;17.82;82.56;100821.03;5076147;28;20083;-67
2023/07/30 01:17:24;;;;;;;6.00;1.95;;;;;;;17.89;82.69;100838.78;5106393;28;20040;-66
2023/07/30 01:19:55;;;;;;;8.10;1.83;;;;;;;17.89;83.01;100824.84;5084001;28;20047;-66
2023/07/30 01:22:23;;;;;;;6.57;1.98;;;;;;;17.69;83.03;100825.91;5090770;28;20054;-67
2023/07/30 01:24:51;;;;;;;6.20;1.90;;;;;;;17.68;83.57;100826.25;5093208;28;20089;-65
2023/07/30 01:27:26;;;;;;;8.13;1.95;;;;;;;17.76;82.89;100828.88;5108384;28;20055;-66
2023/07/30 01:30:14;;;;;;;8.48;1.90;;;;;;;17.87;82.63;100834.72;5064999;28;20051;-66
2023/07/30 01:32:42;;;;;;;11.95;2.53;;;;;;;17.94;82.08;100840.47;5085204;28;20048;-66
2023/07/30 01:35:10;;;;;;;7.10;1.80;;;;;;;18.09;81.02;100842.47;5111589;28;20051;-67
2023/07/30 01:37:38;;;;;;;6.55;2.05;;;;;;;17.97;81.21;100854.50;5093324;28;20047;-66
2023/07/30 01:40:07;;;;;;;8.60;2.28;;;;;;;17.54;82.61;100862.91;5091310;28;20066;-66
2023/07/30 01:42:34;;;;;;;9.10;2.20;;;;;;;17.79;82.75;100867.19;5105450;28;20060;-66
2023/07/30 01:45:02;;;;;;;9.95;2.60;;;;;;;18.11;81.13;100865.22;5111087;28;20055;-66
2023/07/30 01:47:30;;;;;;;8.05;2.25;;;;;;;18.07;80.54;100864.31;5090185;28;20046;-65
2023/07/30 01:49:57;;;;;;;11.35;2.40;;;;;;;18.11;79.62;100868.00;5092914;28;20044;-65
2023/07/30 01:52:25;;;;;;;9.15;1.98;;;;;;;18.21;79.68;100866.63;5111077;28;20048;-67
2023/07/30 01:54:52;;;;;;;9.75;2.10;;;;;;;18.45;78.76;100875.63;5094196;28;20051;-66
2023/07/30 01:57:21;;;;;;;8.52;2.13;;;;;;;18.05;78.35;100883.38;5112896;28;20065;-66
2023/07/30 01:59:48;;;;;;;10.13;1.98;;;;;;;17.88;79.76;100870.59;5075541;28;20052;-66
2023/07/30 02:02:16;;;;;;;5.78;1.67;;;;;;;18.16;79.33;100870.50;5095925;28;20052;-66
2023/07/30 02:04:43;;;;;;;9.90;2.10;;;;;;;18.21;78.75;100870.25;5114705;28;20055;-65
2023/07/30 02:07:10;;;;;;;7.35;1.60;;;;;;;18.16;78.75;100881.66;5080499;28;20046;-66
2023/07/30 02:09:38;;;;;;;8.68;1.98;;;;;;;17.97;79.69;100876.00;5115233;28;20806;-66
2023/07/30 02:12:08;;;;;;;6.25;1.67;;;;;;;18.07;79.39;100886.59;5095933;28;20047;-67
2023/07/30 02:14:35;;;;;;;6.10;1.60;;;;;;;18.41;78.51;100885.88;5079816;28;20043;-66
2023/07/30 02:17:02;;;;;;;9.10;2.05;;;;;;;17.99;79.39;100890.41;5095125;28;20487;-66
2023/07/30 02:19:30;;;;;;;9.65;1.95;;;;;;;17.98;80.05;100877.59;5108605;28;20062;-66
2023/07/30 02:21:57;;;;;;;11.27;2.15;;;;;;;17.97;79.95;100889.94;5112591;28;20036;-66
2023/07/30 02:24:24;;;;;;;7.95;1.80;;;;;;;17.58;82.17;100894.47;5092356;28;20055;-66
2023/07/30 02:26:52;;;;;;;8.32;2.00;;;;;;;17.78;82.17;100898.97;5107027;28;20036;-66
2023/07/30 02:29:19;;;;;;;8.10;1.77;;;;;;;18.10;80.57;100899.03;5108496;28;20044;-66
2023/07/30 02:31:47;;;;;;;7.38;1.80;;;;;;;17.84;81.36;100900.34;5093323;28;20454;-66
2023/07/30 02:34:14;;;;;;;13.15;1.77;;;;;;;17.89;81.44;100893.69;5111448;28;20043;-66
2023/07/30 02:36:43;;;;;;;12.60;2.20;;;;;;;17.85;81.44;100892.81;5096004;28;20054;-66
2023/07/30 02:39:11;;;;;;;9.25;2.22;;;;;;;18.21;80.61;100897.31;5111109;28;20046;-67
2023/07/30 02:41:38;;;;;;;9.07;1.70;;;;;;;18.09;80.05;100909.38;5092728;28;20056;-67
2023/07/30 02:44:06;;;;;;;12.48;2.03;;;;;;;18.13;79.25;100901.91;5094976;28;20051;-66
2023/07/30 02:46:34;;;;;;;9.40;1.90;;;;;;;17.82;81.46;100904.66;5114327;28;20043;-66
2023/07/30 02:49:01;;;;;;;13.07;2.20;;;;;;;17.59;81.49;100901.63;5111509;28;20047;-65
2023/07/30 02:51:28;;;;;;;11.48;2.20;;;;;;;17.56;83.51;100907.94;5104017;28;20061;-65
2023/07/30 02:54:04;;;;;;;8.48;2.42;;;;;;;17.73;82.11;100907.59;5095518;28;20392;-66
2023/07/30 02:56:31;;;;;;;9.90;2.10;;;;;;;17.85;81.96;100904.75;5108641;28;20051;-66
2023/07/30 02:58:59;;;;;;;10.73;2.17;;;;;;;17.79;81.68;100906.19;5064672;28;20070;-66
2023/07/30 03:01:26;;;;;;;14.23;2.58;;;;;;;17.76;82.45;100900.50;5105496;28;20059;-65
2023/07/30 03:03:54;;;;;;;9.40;2.30;;;;;;;17.89;81.44;100904.84;5114385;28;20047;-65
2023/07/30 03:06:21;;;;;;;13.73;2.20;;;;;;;17.99;79.84;100905.13;5103960;28;20055;-68
2023/07/30 03:08:50;;;;;;;14.82;2.28;;;;;;;18.07;80.38;100902.50;5077315;28;20038;-64
2023/07/30 03:11:17;;;;;;;8.05;2.22;;;;;;;17.77;80.98;100904.91;5099441;28;20677;-66
2023/07/30 03:13:45;;;;;;;17.42;2.80;;;;;;;17.78;81.79;100903.75;5097369;28;20056;-65
2023/07/30 03:16:13;;;;;;;10.70;2.00;;;;;;;17.76;81.85;100903.31;5087270;28;20044;-67
2023/07/30 03:18:40;;;;;;;14.48;2.80;;;;;;;17.73;82.63;100904.81;5108444;28;20051;-66
2023/07/30 03:21:07;;;;;;;10.15;2.80;;;;;;;17.96;81.40;100900.28;5111379;28;20471;-66
2023/07/30 03:23:35;;;;;;;15.73;3.00;;;;;;;18.14;80.82;100899.91;5107628;28;20048;-67
2023/07/30 03:26:02;;;;;;;11.55;2.63;;;;;;;17.87;81.36;100904.38;5109933;28;20043;-66
2023/07/30 03:28:29;;;;;;;11.68;2.33;;;;;;;17.79;81.90;100914.53;5106638;28;20562;-65
2023/07/30 03:30:57;;;;;;;8.50;2.58;;;;;;;17.75;82.11;100908.06;5106531;28;20531;-66
2023/07/30 03:33:24;;;;;;;11.73;2.20;;;;;;;17.79;82.22;100911.75;5108597;28;20102;-64
2023/07/30 03:35:52;;;;;;;16.52;2.97;;;;;;;17.72;82.03;100914.34;5109489;28;20255;-66
2023/07/30 03:38:19;;;;;;;11.70;2.30;;;;;;;17.83;82.00;100912.69;5087882;28;20773;-65
2023/07/30 03:40:46;;;;;;;14.23;2.58;;;;;;;17.92;81.10;100921.66;5090785;28;20060;-66
2023/07/30 03:43:14;;;;;;;13.90;2.63;;;;;;;18.20;79.86;100918.00;5096062;28;20517;-66
2023/07/30 03:45:41;;;;;;;16.67;2.20;;;;;;;18.14;79.87;100925.81;5105476;28;20059;-67
2023/07/30 03:48:09;;;;;;;14.93;2.38;;;;;;;17.91;80.58;100931.19;5100359;27;20418;-67
2023/07/30 03:50:37;;;;;;;16.58;2.72;;;;;;;17.69;81.57;100926.22;5106030;28;20040;-67
2023/07/30 03:53:05;;;;;;;13.05;2.38;;;;;;;17.92;80.60;100920.88;5109855;28;20040;-66
2023/07/30 03:55:33;;;;;;;13.73;2.95;;;;;;;17.96;80.38;100935.69;5094197;28;20426;-67
2023/07/30 03:58:00;;;;;;;15.75;2.58;;;;;;;17.87;80.19;100932.25;5091300;28;21640;-66
2023/07/30 04:00:29;;;;;;;16.02;2.42;;;;;;;17.71;81.65;100939.78;5112491;28;20510;-65
2023/07/30 04:02:56;;;;;;;13.30;2.85;;;;;;;17.75;80.64;100933.13;5108481;28;20062;-65
2023/07/30 04:05:24;;;;;;;13.93;2.88;;;;;;;17.81;81.38;100950.41;5101991;28;20368;-65
2023/07/30 04:07:51;;;;;;;12.80;2.45;;;;;;;18.02;79.99;100937.06;5112665;28;20520;-66
2023/07/30 04:10:19;;;;;;;13.90;2.53;;;;;;;17.92;79.40;100940.38;5111464;27;20047;-66
2023/07/30 04:12:46;;;;;;;11.57;2.45;;;;;;;17.94;79.54;100938.84;5098902;28;20052;-66
2023/07/30 04:15:17;;;;;;;16.83;2.35;;;;;;;17.95;79.04;100937.69;5076028;28;20056;-66
2023/07/30 04:17:44;;;;;;;13.75;2.72;;;;;;;17.82;79.89;100950.06;5111000;28;20058;-66
2023/07/30 04:20:12;;;;;;;17.88;2.78;;;;;;;17.95;79.87;100948.84;5104943;28;20043;-66
2023/07/30 04:22:41;;;;;;;16.67;3.08;;;;;;;17.78;79.98;100951.91;5109511;28;20270;-66
2023/07/30 04:25:10;;;;;;;19.03;3.40;;;;;;;17.86;80.38;100944.56;5100381;28;20434;-67
2023/07/30 04:27:38;;;;;;;14.10;2.40;;;;;;;17.88;79.97;100948.63;5092497;28;20301;-68
2023/07/30 04:30:06;;;;;;;16.42;2.42;;;;;;;17.91;79.75;100964.63;5111414;28;20059;-66
2023/07/30 04:32:34;;;;;;;14.32;2.60;;;;;;;17.90;79.70;100960.22;5112084;28;20055;-66
2023/07/30 04:35:02;;;;;;;19.50;3.38;;;;;;;17.97;79.94;100948.47;5090348;28;20059;-66
2023/07/30 04:37:30;;;;;;;20.90;3.25;;;;;;;18.21;78.26;100953.88;5089989;28;20066;-67
2023/07/30 04:39:57;;;;;;;20.48;3.28;;;;;;;18.03;78.22;100951.81;5110230;28;20051;-66
2023/07/30 04:42:27;;;;;;;19.60;3.15;;;;;;;17.94;79.18;100958.34;5086770;28;20058;-66
2023/07/30 04:44:55;;;;;;;15.90;2.58;;;;;;;18.05;78.70;100960.59;5088244;28;20043;-65
2023/07/30 04:47:22;;;;;;;12.93;2.47;;;;;;;18.13;78.58;100966.03;5110427;28;20058;-66
2023/07/30 04:49:50;;;;;;;15.98;2.75;;;;;;;18.22;78.09;100974.22;5095521;28;20051;-67
2023/07/30 04:52:19;;;;;;;16.25;3.20;;;;;;;17.88;79.04;100982.09;5099650;28;20161;-65
2023/07/30 04:54:46;;;;;;;12.23;2.70;;;;;;;18.04;78.80;100984.09;5093594;28;20047;-67
2023/07/30 04:57:13;;;;;;;15.73;3.10;;;;;;;17.97;79.27;100979.91;5087086;28;20044;-67
2023/07/30 04:59:41;;;;;;;10.88;2.30;;;;;;;18.09;78.77;100986.59;5112029;28;20433;-67
2023/07/30 05:02:08;;;;;;;16.48;3.20;;;;;;;17.88;79.18;100987.66;5106956;28;20145;-67
2023/07/30 05:04:35;;;;;;;17.00;2.50;;;;;;;17.95;79.10;100987.84;5083771;28;20056;-67
2023/07/30 05:07:03;;;;;;;23.17;3.08;;;;;;;17.89;78.84;100988.44;5100346;28;20056;-66
2023/07/30 05:09:30;;;;;;;18.52;2.95;;;;;;;18.17;78.05;101000.38;5107366;28;20051;-66
2023/07/30 05:11:57;;;;;;;13.98;2.53;;;;;;;18.17;78.06;101005.94;5092672;28;20043;-66
2023/07/30 05:14:25;;;;;;;15.20;2.85;;;;;;;17.95;78.16;100999.00;5093079;28;20054;-66
2023/07/30 05:16:52;;;;;;;19.67;3.03;;;;;;;17.88;79.08;101006.34;5109331;28;20051;-67
2023/07/30 05:19:20;;;;;;;16.45;2.78;;;;;;;18.02;78.94;101011.50;5108496;28;20044;-65
2023/07/30 05:21:47;;;;;;;16.65;3.65;;;;;;;18.02;78.03;101006.75;5092467;28;20067;-66
2023/07/30 05:24:14;;;;;;;12.07;2.30;;;;;;;18.25;77.22;101016.16;5106413;28;20074;-65
2023/07/30 05:26:42;;;;;;;13.55;2.83;;;;;;;18.22;77.71;101013.25;5108388;28;20051;-68
2023/07/30 05:29:09;;;;;;;13.90;2.92;;;;;;;18.14;77.56;101017.81;5099679;28;20040;-66
2023/07/30 05:31:37;;;;;;;16.73;2.90;;;;;;;18.11;77.50;101015.75;5114316;28;20047;-67
2023/07/30 05:34:04;;;;;;;14.15;2.40;;;;;;;18.10;78.23;101028.06;5110979;28;20051;-65
2023/07/30 05:36:32;;;;;;;14.25;2.83;;;;;;;18.25;77.41;101021.72;5096808;28;20052;-67
2023/07/30 05:38:59;;;;;;;14.52;2.90;;;;;;;18.39;76.73;101012.91;5108704;28;20056;-66
2023/07/30 05:41:26;;;;;;;17.15;2.90;;;;;;;18.39;76.28;101015.72;5115582;28;20051;-65
2023/07/30 05:43:54;;;;;;;16.27;2.75;;;;;;;18.30;76.91;101020.63;5111071;28;20070;-66
2023/07/30 05:46:21;;;;;;;15.80;3.30;;;;;;;18.38;76.24;101017.69;5114976;28;20043;-67
2023/07/30 05:48:48;;;;;;;13.30;2.72;;;;;;;18.46;76.16;101013.94;5079308;28;20051;-66
2023/07/30 05:51:16;;;;;;;13.80;3.33;;;;;;;18.55;75.34;101013.78;5114646;28;20079;-66
2023/07/30 05:53:43;;;;;;;10.18;2.97;;;;;;;18.26;75.82;101020.53;5112999;28;20054;-66
2023/07/30 05:56:13;;;;;;;12.45;2.20;;;;;;;17.94;77.48;101016.88;5114423;28;20533;-67
2023/07/30 05:58:40;;;;;;;18.10;3.33;;;;;;;18.25;77.44;101018.94;5108271;28;20048;-65
2023/07/30 06:01:08;;;;;;;13.57;2.95;;;;;;;18.33;75.56;101026.31;5115148;28;20146;-66
2023/07/30 06:03:35;;;;;;;16.75;2.70;;;;;;;18.02;75.86;101022.66;5114139;28;20035;-66
2023/07/30 06:06:03;;;;;;;17.67;2.80;;;;;;;18.31;75.79;101027.81;5114440;28;20048;-66
2023/07/30 06:08:30;;;;;;;13.20;2.72;;;;;;;18.17;75.50;101033.00;5115618;28;20044;-66
2023/07/30 06:11:03;;;;;;;17.23;3.10;;;;;;;18.23;75.93;101029.63;5114063;28;20763;-66
2023/07/30 06:13:30;;;;;;;16.45;3.08;;;;;;;18.37;74.95;101035.59;5115171;28;20055;-67
2023/07/30 06:15:57;;;;;;;12.93;2.63;;;;;;;18.56;74.55;101029.34;5115386;28;20067;-66
2023/07/30 06:18:25;;;;;;;14.73;2.90;;;;;;;18.46;74.19;101033.44;5096386;28;20058;-67
2023/07/30 06:20:52;;;;;;;11.75;2.40;;;;;;;18.64;73.78;101036.72;5096052;28;20059;-67
2023/07/30 06:23:19;;;;;;;12.63;2.80;;;;;;;18.56;74.06;101043.28;5114347;28;20054;-66
2023/07/30 06:25:47;;;;;;;14.63;2.60;;;;;;;18.61;74.32;101043.84;5114645;28;20051;-65
2023/07/30 06:28:14;;;;;;;13.48;3.17;;;;;;;18.44;74.15;101049.75;5114838;28;20052;-66
2023/07/30 06:30:42;;;;;;;12.68;2.33;;;;;;;18.78;73.23;101049.06;5095225;28;20043;-66
2023/07/30 06:33:09;;;;;;;17.23;2.97;;;;;;;19.21;71.63;101053.72;5092994;28;20056;-66
2023/07/30 06:35:43;;;;;;;14.45;2.90;;;;;;;18.84;72.37;101047.63;5091491;28;20055;-66
2023/07/30 06:38:10;;;;;;;17.38;3.17;;;;;;;18.86;73.10;101062.00;5095426;28;20071;-66
2023/07/30 06:40:37;;;;;;;12.95;3.25;;;;;;;18.95;72.45;101059.06;5085619;28;20056;-66
2023/07/30 06:43:05;;;;;;;13.02;2.47;;;;;;;18.92;72.32;101060.56;5104521;28;20047;-66
2023/07/30 06:45:32;;;;;;;18.98;3.20;;;;;;;19.14;70.81;101058.31;5115184;27;20074;-66
2023/07/30 06:47:59;;;;;;;15.13;3.33;;;;;;;18.98;72.00;101061.13;5105280;28;20051;-66
2023/07/30 06:50:27;;;;;;;14.52;2.63;;;;;;;19.17;71.69;101069.56;5081383;28;20070;-66
2023/07/30 06:52:54;;;;;;;12.73;2.80;;;;;;;19.35;71.70;101073.63;5110243;28;20051;-66
2023/07/30 06:55:21;;;;;;;13.73;2.92;;;;;;;19.64;70.33;101075.06;5114676;28;20486;-66
2023/07/30 06:57:49;;;;;;;15.02;2.75;;;;;;;19.50;69.45;101080.34;5114001;28;20063;-66
2023/07/30 07:00:21;;;;;;;14.15;2.92;;;;;;;19.19;70.69;101089.56;5093765;28;20347;-67
2023/07/30 07:02:49;;;;;;;9.95;2.50;;;;;;;19.50;69.83;101075.56;5112174;28;20047;-67
2023/07/30 07:05:16;;;;;;;13.07;2.55;;;;;;;19.46;69.07;101083.03;5112871;28;20043;-66
2023/07/30 07:07:44;;;;;;;11.05;2.45;;;;;;;19.38;69.42;101081.28;5095924;28;20604;-66
2023/07/30 07:10:12;;;;;;;9.90;2.63;;;;;;;19.55;69.33;101078.06;5107837;28;20109;-66
2023/07/30 07:12:40;;;;;;;10.90;2.55;;;;;;;19.14;69.45;101084.25;5112997;28;20070;-66
2023/07/30 07:15:08;;;;;;;13.43;3.20;;;;;;;19.20;69.14;101079.19;5110658;28;20044;-69
2023/07/30 07:17:35;;;;;;;12.30;2.78;;;;;;;19.47;69.13;101084.69;5092038;28;20056;-66
2023/07/30 07:20:04;;;;;;;11.80;2.58;;;;;;;19.57;67.96;101084.09;5078821;28;20066;-67
2023/07/30 07:22:33;;;;;;;10.93;2.50;;;;;;;19.58;67.69;101077.31;5107182;28;20407;-66
2023/07/30 07:25:01;;;;;;;10.95;2.50;;;;;;;20.06;66.82;101081.56;5095076;28;20048;-67
2023/07/30 07:27:28;;;;;;;15.95;2.60;;;;;;;19.77;66.96;101082.94;5108723;28;20176;-66
2023/07/30 07:29:56;;;;;;;9.55;2.28;;;;;;;19.64;67.69;101091.84;5106211;28;20506;-66
2023/07/30 07:32:23;;;;;;;10.18;2.47;;;;;;;19.88;67.31;101084.00;5113896;28;20051;-66
2023/07/30 07:34:51;;;;;;;16.60;3.28;;;;;;;19.96;65.56;101088.53;5106285;28;20051;-66
2023/07/30 07:37:18;;;;;;;12.75;3.20;;;;;;;19.87;65.70;101085.19;5108039;28;20066;-66
2023/07/30 07:39:46;;;;;;;11.15;2.53;;;;;;;19.86;65.63;101088.31;5113490;28;20407;-66
2023/07/30 07:42:13;;;;;;;15.82;2.85;;;;;;;19.90;64.97;101090.03;5111131;28;20048;-67
2023/07/30 07:44:43;;;;;;;11.35;2.53;;;;;;;19.90;65.04;101084.44;5107695;27;20054;-67
2023/07/30 07:47:11;;;;;;;12.82;3.50;;;;;;;19.88;64.82;101091.56;5112244;28;20052;-67
2023/07/30 07:49:38;;;;;;;12.57;2.72;;;;;;;19.94;64.28;101096.53;5105997;28;20362;-66
2023/07/30 07:52:06;;;;;;;9.48;2.55;;;;;;;20.21;63.38;101091.09;5091772;28;20055;-66
2023/07/30 07:54:34;;;;;;;11.82;2.90;;;;;;;19.78;64.00;101092.97;5110768;28;20048;-66
2023/07/30 07:57:01;;;;;;;10.15;2.78;;;;;;;19.56;67.33;101095.66;5101084;28;20052;-66
2023/07/30 07:59:29;;;;;;;10.15;2.40;;;;;;;19.94;62.79;101104.09;5085009;28;20443;-64
2023/07/30 08:01:56;;;;;;;8.82;2.45;;;;;;;20.32;60.90;101108.88;5083554;28;20052;-64
2023/07/30 08:04:24;;;;;;;12.52;2.92;;;;;;;20.31;60.15;101105.28;5106267;28;20050;-64
2023/07/30 08:06:51;;;;;;;12.70;2.78;;;;;;;20.31;60.38;101112.88;5107459;28;20514;-65
2023/07/30 08:09:19;;;;;;;8.20;2.30;;;;;;;20.49;59.31;101117.63;5093534;28;20044;-65
2023/07/30 08:11:46;;;;;;;10.50;2.83;;;;;;;20.42;59.51;101116.69;5112717;28;20048;-65
2023/07/30 08:14:13;;;;;;;9.45;2.33;;;;;;;20.31;nan;101115.69;5105155;27;20059;-64
2023/07/30 08:16:41;;;;;;;10.98;2.60;;;;;;;20.17;59.97;101113.41;5107208;28;20113;-65
2023/07/30 08:19:09;;;;;;;11.20;2.22;;;;;;;20.35;59.40;101113.75;5109907;28;20043;-64
2023/07/30 08:21:37;;;;;;;9.52;2.00;;;;;;;20.15;59.76;101108.13;5107110;28;20047;-64
2023/07/30 08:24:04;;;;;;;9.20;1.85;;;;;;;20.21;59.27;101116.28;5089865;28;20047;-64
2023/07/30 08:26:32;;;;;;;9.15;2.50;;;;;;;20.13;60.00;101110.50;5106878;28;20793;-64
2023/07/30 08:28:59;;;;;;;8.32;1.80;;;;;;;20.40;59.13;101113.47;5104459;28;20522;-65
2023/07/30 08:31:27;;;;;;;9.38;2.33;;;;;;;20.61;58.75;101097.06;5092653;28;20043;-65
2023/07/30 08:33:54;;;;;;;12.15;2.80;;;;;;;20.65;58.79;101123.13;5086000;28;20051;-65
2023/07/30 08:36:21;;;;;;;11.07;2.75;;;;;;;20.43;59.35;101123.91;5108672;28;20040;-64
2023/07/30 08:38:50;;;;;;;9.77;2.60;;;;;;;20.44;59.52;101123.53;5109613;28;20383;-64
2023/07/30 08:41:17;;;;;;;10.07;2.08;;;;;;;20.58;59.97;101118.22;5108120;28;20051;-64
2023/07/30 08:43:48;;;;;;;8.60;2.17;;;;;;;20.87;58.81;101117.56;5088852;28;20051;-64
2023/07/30 08:46:16;;;;;;;10.35;2.17;;;;;;;20.94;58.26;101116.84;5086811;28;20040;-64
2023/07/30 08:48:44;;;;;;;12.63;2.72;;;;;;;20.74;57.67;101113.31;5107902;28;20047;-63
2023/07/30 08:51:14;;;;;;;7.45;2.00;;;;;;;20.99;57.46;101123.00;5107042;28;20050;-64
2023/07/30 08:53:42;;;;;;;8.93;2.40;;;;;;;21.09;57.38;101128.00;5108881;28;20050;-65
2023/07/30 08:56:09;;;;;;;10.55;3.05;;;;;;;21.10;57.28;101123.19;5106572;28;20047;-65
2023/07/30 08:58:37;;;;;;;7.65;2.08;;;;;;;21.04;57.26;101121.88;5107873;28;20052;-64
2023/07/30 09:01:08;;;;;;;11.82;2.67;;;;;;;21.00;57.01;101121.00;5107944;28;20477;-63
2023/07/30 09:03:38;;;;;;;11.13;2.25;;;;;;;20.98;57.01;101117.75;5105245;28;20059;-64
2023/07/30 09:06:07;;;;;;;11.70;2.50;;;;;;;21.07;56.28;101115.53;5088159;28;20063;-65
2023/07/30 09:08:34;;;;;;;10.15;2.20;;;;;;;21.26;56.97;101112.66;5107320;28;20055;-65
2023/07/30 09:11:09;;;;;;;9.30;3.45;;;;;;;21.41;55.93;101116.50;5111664;28;20035;-64
2023/07/30 09:13:38;;;;;;;8.90;2.38;;;;;;;21.29;56.15;101125.13;5109002;28;20047;-65
2023/07/30 09:16:13;;;;;;;8.95;2.25;;;;;;;20.49;56.33;101114.84;5111458;28;20055;-65
2023/07/30 09:18:45;;;;;;;12.52;2.58;;;;;;;20.22;58.99;101112.28;5107185;28;20047;-65
2023/07/30 09:21:13;;;;;;;8.48;2.45;;;;;;;20.53;58.27;101114.91;5104150;28;20048;-64
2023/07/30 09:23:42;;;;;;;9.52;2.60;;;;;;;21.00;57.38;101107.00;5093045;28;20047;-64
2023/07/30 09:26:10;;;;;;;7.57;2.55;;;;;;;20.91;56.52;101114.81;5103621;28;20048;-65
2023/07/30 09:28:38;;;;;;;9.10;2.58;;;;;;;20.96;56.12;101114.50;5103587;28;20051;-65
2023/07/30 09:31:07;;;;;;;13.77;2.97;;;;;;;21.00;56.03;101121.00;5085784;28;20035;-64
2023/07/30 09:33:48;;;;;;;8.93;2.17;;;;;;;21.48;54.70;101122.22;5097693;28;20065;-64
2023/07/30 09:36:15;;;;;;;10.77;3.42;;;;;;;21.49;54.57;101109.81;5109269;28;20048;-65
2023/07/30 09:38:43;;;;;;;8.18;2.45;;;;;;;21.42;54.25;101112.50;5075564;28;20048;-63
2023/07/30 09:41:11;;;;;;;8.50;2.28;;;;;;;21.62;53.54;101112.00;5111118;28;20062;-65
2023/07/30 09:43:39;;;;;;;16.10;2.22;;;;;;;21.59;52.36;101107.16;5108983;28;20055;-64
2023/07/30 09:46:07;;;;;;;8.15;2.58;;;;;;;21.96;52.62;101101.69;5109103;28;20048;-67
2023/07/30 09:48:35;;;;;;;7.95;2.60;;;;;;;22.15;51.07;101107.16;5106777;28;20043;-67
2023/07/30 09:51:03;;;;;;;7.80;2.35;;;;;;;21.98;50.00;101113.34;5106962;28;20044;-64
2023/07/30 09:53:34;;;;;;;9.85;2.03;;;;;;;21.35;51.80;101123.59;5063984;28;20066;-66
2023/07/30 09:56:04;;;;;;;9.07;2.75;;;;;;;21.44;53.14;101099.72;5103242;28;20058;-64
2023/07/30 09:58:31;;;;;;;9.20;3.30;;;;;;;21.76;52.24;101111.41;5107233;28;20065;-65
2023/07/30 10:01:00;;;;;;;8.60;2.30;;;;;;;21.55;51.60;101114.69;5101732;28;20312;-64
2023/07/30 10:03:28;;;;;;;7.43;2.17;;;;;;;21.58;51.94;101118.75;5089074;28;20047;-64
2023/07/30 10:06:03;;;;;;;9.00;2.58;;;;;;;21.93;51.40;101120.09;5088876;28;20055;-65
2023/07/30 10:08:34;;;;;;;8.95;2.92;;;;;;;21.95;51.01;101116.94;5102595;28;20056;-64
2023/07/30 10:11:03;;;;;;;8.48;3.10;;;;;;;21.74;51.39;101130.63;5086070;28;20054;-65
2023/07/30 10:13:31;;;;;;;9.40;2.80;;;;;;;21.90;50.97;101126.47;5082367;28;20043;-65
2023/07/30 10:15:59;;;;;;;10.15;2.78;;;;;;;22.11;50.83;101125.94;5106119;28;20052;-64
2023/07/30 10:18:43;;;;;;;8.93;2.10;;;;;;;22.21;49.94;101123.25;5105164;27;20502;-64
2023/07/30 10:21:22;;;;;;;8.40;2.47;;;;;;;21.49;50.86;101126.63;5102282;28;20668;-65
2023/07/30 10:24:03;;;;;;;10.27;2.45;;;;;;;21.72;50.82;101138.59;5076242;28;20052;-65
2023/07/30 10:26:35;;;;;;;7.55;2.30;;;;;;;21.48;49.28;101142.63;5107000;27;20048;-64
2023/07/30 10:29:16;;;;;;;7.93;2.15;;;;;;;21.09;50.98;101152.38;5108098;27;20051;-65
2023/07/30 10:31:57;;;;;;;8.88;2.60;;;;;;;20.66;52.44;101149.97;5107331;27;20051;-65
2023/07/30 10:34:44;;;;;;;7.85;2.70;;;;;;;20.75;52.90;101144.91;5106855;27;20051;-65
2023/07/30 10:37:17;;;;;;;8.15;2.55;;;;;;;21.08;51.45;101143.16;5091052;27;20047;-66
2023/07/30 10:39:48;;;;;;;10.57;2.90;;;;;;;21.48;50.76;101151.03;5107392;27;20066;-66
2023/07/30 10:42:17;;;;;;;6.97;2.63;;;;;;;21.66;49.83;101156.91;5104910;27;20038;-64
2023/07/30 10:44:45;;;;;;;9.05;2.17;;;;;;;21.55;49.74;101141.94;5107508;27;20051;-65
2023/07/30 10:47:12;;;;;;;7.53;2.58;;;;;;;21.30;50.13;101158.34;5108039;28;20071;-65
2023/07/30 10:50:04;;;;;;;9.35;2.38;;;;;;;21.03;50.89;101143.47;5108657;28;20094;-65
2023/07/30 10:52:31;;;;;;;7.55;2.47;;;;;;;21.24;50.88;101149.44;5110336;28;20051;-69
2023/07/30 10:55:02;;;;;;;7.50;2.30;;;;;;;21.36;49.34;101133.63;5113374;27;20043;-64
2023/07/30 10:57:33;;;;;;;7.38;2.20;;;;;;;21.04;50.08;101136.69;5097941;28;20063;-68
2023/07/30 11:00:00;;;;;;;8.43;2.03;;;;;;;21.23;49.92;101153.41;5092776;28;20392;-65
2023/07/30 11:02:29;;;;;;;10.07;2.70;;;;;;;21.13;49.64;101136.47;5104229;27;20052;-67
2023/07/30 11:04:57;;;;;;;5.87;2.03;;;;;;;20.94;50.22;101147.66;5104092;28;20035;-65
2023/07/30 11:07:24;;;;;;;7.55;2.33;;;;;;;21.55;51.61;101145.53;5088463;28;20036;-66
2023/07/30 11:10:01;;;;;;;6.97;2.10;;;;;;;21.56;47.43;101140.75;5101988;28;20051;-69
2023/07/30 11:12:29;;;;;;;6.55;2.03;;;;;;;21.14;49.05;101141.69;5106813;28;20419;-64
2023/07/30 11:15:01;;;;;;;7.78;2.10;;;;;;;21.10;49.41;101145.59;5105390;27;20054;-69
2023/07/30 11:17:28;;;;;;;5.53;1.63;;;;;;;21.40;48.54;101145.69;5104527;27;20058;-66
2023/07/30 11:19:56;;;;;;;5.90;2.28;;;;;;;21.77;48.00;101146.69;5107941;27;20058;-70
2023/07/30 11:22:33;;;;;;;6.13;1.90;;;;;;;21.55;48.08;101147.56;5087586;28;20044;-65
2023/07/30 11:25:08;;;;;;;7.90;2.70;;;;;;;21.61;47.52;101162.84;5104513;28;20505;-62
2023/07/30 11:27:45;;;;;;;10.50;2.67;;;;;;;21.29;48.61;101155.94;5104467;28;20055;-62